Time;durP1;ratioP1;P1;durP2;ratioP2;P2;SDS_P1;SDS_P2;PMS_P1;PMS_P2;Temp;Humidity;BMP_temperature;BMP_pressure;BME280_temperature;BME280_humidity;BME280_pressure;Samples;Min_cycle;Max_cycle;Signal;HPM_P1;HPM_P2
2022/03/07 00:00:06;;;;;;;18.33;8.65;;;0.60;99.90;;;;;;4925591;28;266296;-80
2022/03/07 00:02:32;;;;;;;15.07;7.78;;;0.50;99.90;;;;;;4961452;28;20059;-80
2022/03/07 00:04:58;;;;;;;13.15;6.80;;;0.50;99.90;;;;;;4904401;28;241929;-80
2022/03/07 00:07:24;;;;;;;17.20;8.05;;;0.40;99.90;;;;;;4962097;28;20055;-80
2022/03/07 00:09:50;;;;;;;18.63;9.35;;;0.40;99.90;;;;;;4933697;28;66983;-80
2022/03/07 00:12:16;;;;;;;19.90;9.23;;;0.40;99.90;;;;;;4985862;28;20050;-80
2022/03/07 00:14:42;;;;;;;18.70;8.75;;;0.30;99.90;;;;;;4922815;28;60037;-80
2022/03/07 00:17:08;;;;;;;17.55;9.77;;;0.30;99.90;;;;;;4985863;28;20408;-79
2022/03/07 00:19:35;;;;;;;21.42;9.68;;;0.30;99.90;;;;;;4926761;28;317997;-81
2022/03/07 00:22:01;;;;;;;16.40;8.60;;;0.30;99.90;;;;;;4944499;28;20054;-81
2022/03/07 00:24:27;;;;;;;21.92;9.23;;;0.20;99.90;;;;;;4930521;28;235202;-80
2022/03/07 00:26:53;;;;;;;19.10;8.98;;;0.20;99.90;;;;;;4958305;28;20527;-80
2022/03/07 00:29:20;;;;;;;18.80;9.57;;;0.20;99.90;;;;;;4926949;28;231263;-80
2022/03/07 00:31:47;;;;;;;16.27;8.55;;;0.10;99.90;;;;;;4965331;28;20046;-81
2022/03/07 00:34:14;;;;;;;16.30;8.20;;;0.10;99.90;;;;;;4968608;28;220928;-81
2022/03/07 00:36:40;;;;;;;16.77;8.43;;;0.00;99.90;;;;;;4956465;28;20061;-81
2022/03/07 00:39:06;;;;;;;15.73;8.40;;;0.00;99.90;;;;;;4974128;28;253292;-81
2022/03/07 00:41:33;;;;;;;19.33;8.18;;;-0.10;99.90;;;;;;4936063;28;20050;-81
2022/03/07 00:43:59;;;;;;;15.88;8.40;;;-0.10;99.90;;;;;;4968034;28;262009;-80
2022/03/07 00:46:25;;;;;;;18.52;8.15;;;-0.20;99.90;;;;;;4937811;28;20047;-80
2022/03/07 00:48:51;;;;;;;18.53;9.17;;;-0.20;99.90;;;;;;4950156;28;266319;-80
2022/03/07 00:51:17;;;;;;;15.98;7.40;;;-0.20;99.90;;;;;;4950924;28;20061;-80
2022/03/07 00:53:43;;;;;;;15.20;7.57;;;-0.20;99.90;;;;;;4976258;28;20469;-80
2022/03/07 00:56:10;;;;;;;17.33;8.27;;;-0.30;99.90;;;;;;4949487;28;261169;-80
2022/03/07 00:58:36;;;;;;;17.65;7.60;;;-0.30;99.90;;;;;;4978402;28;20066;-80
2022/03/07 01:01:03;;;;;;;17.00;7.88;;;-0.30;99.90;;;;;;4898389;28;249773;-81
2022/03/07 01:03:29;;;;;;;14.30;6.50;;;-0.40;99.90;;;;;;4962069;28;20058;-81
2022/03/07 01:05:55;;;;;;;19.58;8.52;;;-0.40;99.90;;;;;;4892695;28;255915;-80
2022/03/07 01:08:22;;;;;;;15.90;8.15;;;-0.40;99.90;;;;;;4955717;28;20055;-80
2022/03/07 01:10:49;;;;;;;16.98;7.38;;;-0.40;99.90;;;;;;4930404;28;168914;-80
2022/03/07 01:13:18;;;;;;;15.95;7.25;;;-0.50;99.90;;;;;;4975174;28;20054;-80
2022/03/07 01:15:44;;;;;;;16.63;7.78;;;-0.60;99.90;;;;;;4916037;28;190392;-81
2022/03/07 01:18:11;;;;;;;18.00;8.32;;;-0.60;99.90;;;;;;4982549;28;20070;-81
2022/03/07 01:20:37;;;;;;;19.23;8.23;;;-0.60;99.90;;;;;;4950226;28;20035;-80
2022/03/07 01:23:03;;;;;;;19.67;8.50;;;-0.60;99.90;;;;;;4972268;28;20058;-81
2022/03/07 01:25:29;;;;;;;16.15;8.23;;;-0.60;99.90;;;;;;4909954;28;256378;-79
2022/03/07 01:27:55;;;;;;;14.77;7.50;;;-0.60;99.90;;;;;;4966222;28;20066;-80
2022/03/07 01:30:22;;;;;;;15.40;8.07;;;-0.60;99.90;;;;;;4923602;28;271934;-81
2022/03/07 01:32:48;;;;;;;14.80;8.23;;;-0.70;99.90;;;;;;4962569;28;20051;-81
2022/03/07 01:35:15;;;;;;;17.08;7.40;;;-0.70;99.90;;;;;;4919463;28;151189;-81
2022/03/07 01:37:41;;;;;;;16.65;7.80;;;-0.70;99.90;;;;;;4959481;28;20158;-81
2022/03/07 01:40:07;;;;;;;17.85;7.90;;;-0.70;99.90;;;;;;4913166;28;20296;-80
2022/03/07 01:42:34;;;;;;;16.00;7.40;;;-0.70;99.90;;;;;;4964144;28;20051;-80
2022/03/07 01:45:11;;;;;;;15.25;7.93;;;-0.80;99.90;;;;;;4930964;28;268548;-81
2022/03/07 01:47:37;;;;;;;15.55;6.88;;;-0.80;99.90;;;;;;4961703;28;20054;-80
2022/03/07 01:50:10;;;;;;;17.38;8.13;;;-0.80;99.90;;;;;;4928662;28;20051;-80
2022/03/07 01:52:39;;;;;;;17.05;7.80;;;-0.90;99.90;;;;;;4970197;28;20055;-81
2022/03/07 01:55:07;;;;;;;16.02;7.90;;;-0.90;99.90;;;;;;4928698;28;271328;-80
2022/03/07 01:57:36;;;;;;;16.25;7.10;;;-1.00;99.90;;;;;;4969720;28;20050;-81
2022/03/07 02:00:06;;;;;;;15.75;7.25;;;-1.00;99.90;;;;;;4927132;28;127831;-81
2022/03/07 02:02:32;;;;;;;16.75;7.18;;;-1.00;99.90;;;;;;4983317;28;20047;-80
2022/03/07 02:04:58;;;;;;;15.52;7.18;;;-1.00;99.90;;;;;;4900403;28;121056;-80
2022/03/07 02:07:24;;;;;;;16.48;7.20;;;-1.10;99.90;;;;;;4957426;28;20047;-80
2022/03/07 02:09:51;;;;;;;15.65;7.00;;;-1.10;99.90;;;;;;4936692;28;247027;-80
2022/03/07 02:12:17;;;;;;;18.23;7.80;;;-1.10;99.90;;;;;;4971360;28;20061;-80
2022/03/07 02:14:43;;;;;;;13.82;7.28;;;-1.10;99.90;;;;;;4933053;28;53076;-80
2022/03/07 02:17:09;;;;;;;20.85;7.60;;;-1.20;99.90;;;;;;4965006;28;20049;-80
2022/03/07 02:19:36;;;;;;;19.52;7.78;;;-1.20;99.90;;;;;;4935132;28;257692;-81
2022/03/07 02:22:04;;;;;;;19.67;8.05;;;-1.20;99.90;;;;;;4964371;28;20067;-80
2022/03/07 02:24:30;;;;;;;15.65;7.05;;;-1.20;99.90;;;;;;4941441;28;162115;-80
2022/03/07 02:27:07;;;;;;;15.95;7.00;;;-1.20;99.90;;;;;;4958780;28;20505;-81
2022/03/07 02:29:34;;;;;;;15.63;6.63;;;-1.20;99.90;;;;;;4939748;28;21194;-80
2022/03/07 02:32:00;;;;;;;15.75;6.90;;;-1.20;99.90;;;;;;4963521;28;20047;-80
2022/03/07 02:34:27;;;;;;;15.80;6.72;;;-1.20;99.90;;;;;;4928486;28;255359;-80
2022/03/07 02:36:53;;;;;;;14.50;6.30;;;-1.30;99.90;;;;;;4967819;28;20054;-80
2022/03/07 02:39:20;;;;;;;15.23;6.90;;;-1.40;99.90;;;;;;4942143;28;39698;-80
2022/03/07 02:41:46;;;;;;;14.07;6.97;;;-1.40;99.90;;;;;;4948674;28;20057;-80
2022/03/07 02:44:12;;;;;;;14.07;7.07;;;-1.40;99.90;;;;;;4970548;28;119616;-81
2022/03/07 02:46:38;;;;;;;14.63;6.57;;;-1.40;99.90;;;;;;4924214;28;20054;-80
2022/03/07 02:49:06;;;;;;;15.57;6.95;;;-1.40;99.90;;;;;;4963907;28;261059;-80
2022/03/07 02:51:33;;;;;;;14.50;6.57;;;-1.50;99.90;;;;;;4957107;28;20105;-80
2022/03/07 02:53:59;;;;;;;15.10;6.20;;;-1.50;99.90;;;;;;4966164;28;255145;-80
2022/03/07 02:56:25;;;;;;;14.55;6.93;;;-1.50;99.90;;;;;;4942945;28;20063;-82
2022/03/07 02:58:52;;;;;;;13.88;6.53;;;-1.60;99.90;;;;;;4968898;28;265141;-82
2022/03/07 03:01:19;;;;;;;15.40;6.85;;;-1.60;99.90;;;;;;4949189;28;20879;-81
2022/03/07 03:03:45;;;;;;;15.70;6.85;;;-1.60;99.90;;;;;;4971846;28;257313;-81
2022/03/07 03:06:11;;;;;;;18.08;7.05;;;-1.60;99.90;;;;;;4919422;28;213398;-81
2022/03/07 03:08:37;;;;;;;15.23;7.15;;;-1.60;99.90;;;;;;4973608;28;20046;-79
2022/03/07 03:11:03;;;;;;;17.58;7.20;;;-1.60;99.90;;;;;;4925791;28;237464;-81
2022/03/07 03:13:29;;;;;;;15.38;7.15;;;-1.60;99.90;;;;;;4976381;28;20061;-81
2022/03/07 03:15:55;;;;;;;14.10;7.05;;;-1.60;99.90;;;;;;4911238;28;128392;-81
2022/03/07 03:18:23;;;;;;;14.05;6.50;;;-1.70;99.90;;;;;;4977590;28;20400;-81
2022/03/07 03:20:53;;;;;;;14.80;7.13;;;-1.70;99.90;;;;;;4938131;28;44615;-81
2022/03/07 03:23:22;;;;;;;15.40;6.80;;;-1.70;99.90;;;;;;4979720;28;20051;-81
2022/03/07 03:25:48;;;;;;;18.30;7.25;;;-1.70;99.90;;;;;;4937024;28;113633;-81
2022/03/07 03:28:15;;;;;;;15.68;7.10;;;-1.80;99.90;;;;;;4978579;28;20105;-81
2022/03/07 03:30:41;;;;;;;15.40;7.25;;;-1.80;99.90;;;;;;4928724;28;46810;-81
2022/03/07 03:33:07;;;;;;;12.45;6.20;;;-1.80;99.90;;;;;;4975882;28;20058;-81
2022/03/07 03:35:36;;;;;;;16.02;6.95;;;-1.80;99.90;;;;;;4914283;28;20047;-81
2022/03/07 03:38:06;;;;;;;15.55;7.30;;;-1.90;99.90;;;;;;4971405;28;20055;-81
2022/03/07 03:40:32;;;;;;;13.98;6.90;;;-1.90;99.90;;;;;;4929897;28;38669;-81
2022/03/07 03:42:58;;;;;;;15.65;6.35;;;-1.90;99.90;;;;;;4972374;28;20047;-81
2022/03/07 03:45:24;;;;;;;17.30;6.80;;;-1.90;99.90;;;;;;4931263;28;253889;-80
2022/03/07 03:47:51;;;;;;;16.02;6.75;;;-2.00;99.90;;;;;;4978125;28;20055;-81
2022/03/07 03:50:17;;;;;;;15.55;7.03;;;-2.00;99.90;;;;;;4934173;28;174899;-81
2022/03/07 03:52:43;;;;;;;16.83;7.40;;;-2.00;99.90;;;;;;4975806;28;21328;-81
2022/03/07 03:55:11;;;;;;;16.85;6.30;;;-2.00;99.90;;;;;;4928965;28;212249;-80
2022/03/07 03:57:40;;;;;;;12.27;5.97;;;-2.00;99.90;;;;;;4973278;28;20057;-81
2022/03/07 04:00:10;;;;;;;14.40;6.65;;;-2.10;99.90;;;;;;4934825;28;175028;-81
2022/03/07 04:02:36;;;;;;;14.73;6.85;;;-2.10;99.90;;;;;;4976014;28;20050;-80
2022/03/07 04:05:03;;;;;;;15.02;6.28;;;-2.10;99.90;;;;;;4919208;28;147445;-81
2022/03/07 04:07:29;;;;;;;12.40;5.88;;;-2.10;99.90;;;;;;4951681;28;20505;-80
2022/03/07 04:09:56;;;;;;;13.80;6.50;;;-2.20;99.90;;;;;;4929376;28;269409;-80
2022/03/07 04:12:22;;;;;;;17.60;6.75;;;-2.20;99.90;;;;;;4969817;28;20525;-81
2022/03/07 04:14:48;;;;;;;15.95;6.93;;;-2.20;99.90;;;;;;4941313;28;252224;-81
2022/03/07 04:17:14;;;;;;;14.05;6.60;;;-2.20;99.90;;;;;;4977671;28;20055;-81
2022/03/07 04:19:40;;;;;;;14.75;6.95;;;-2.30;99.90;;;;;;4958111;28;60374;-80
2022/03/07 04:22:06;;;;;;;15.48;7.50;;;-2.20;99.90;;;;;;4983593;28;20046;-81
2022/03/07 04:24:34;;;;;;;16.73;7.47;;;-2.30;99.90;;;;;;4940186;28;251019;-81
2022/03/07 04:27:01;;;;;;;16.30;6.05;;;-2.30;99.90;;;;;;4967204;28;20051;-80
2022/03/07 04:29:27;;;;;;;13.75;6.35;;;-2.30;99.90;;;;;;4937565;28;157251;-81
2022/03/07 04:31:53;;;;;;;15.57;6.68;;;-2.30;99.90;;;;;;4963022;28;20063;-80
2022/03/07 04:34:19;;;;;;;14.98;6.90;;;-2.40;99.90;;;;;;4937283;28;264391;-80
2022/03/07 04:36:45;;;;;;;15.80;7.22;;;-2.40;99.90;;;;;;4972253;28;20067;-81
2022/03/07 04:39:12;;;;;;;18.30;7.78;;;-2.40;99.90;;;;;;4963064;28;192095;-82
2022/03/07 04:41:44;;;;;;;14.52;7.45;;;-2.40;99.90;;;;;;4927061;28;20038;-81
2022/03/07 04:44:11;;;;;;;14.70;7.25;;;-2.50;99.90;;;;;;4975529;28;68619;-82
2022/03/07 04:46:38;;;;;;;14.37;7.70;;;-2.40;99.90;;;;;;4939741;28;20067;-81
2022/03/07 04:49:04;;;;;;;14.70;6.90;;;-2.50;99.90;;;;;;4960375;28;275358;-81
2022/03/07 04:51:31;;;;;;;14.15;6.57;;;-2.50;99.90;;;;;;4948224;28;20161;-81
2022/03/07 04:53:58;;;;;;;13.77;6.75;;;-2.50;99.90;;;;;;4961652;28;266544;-80
2022/03/07 04:56:24;;;;;;;12.82;6.97;;;-2.50;99.90;;;;;;4941208;28;20062;-79
2022/03/07 04:58:50;;;;;;;14.75;7.07;;;-2.40;99.90;;;;;;4961363;28;270262;-81
2022/03/07 05:01:16;;;;;;;13.43;6.82;;;-2.40;99.90;;;;;;4934222;28;20051;-81
2022/03/07 05:03:42;;;;;;;12.90;6.82;;;-2.40;99.90;;;;;;4996897;28;20069;-80
2022/03/07 05:06:11;;;;;;;16.63;8.38;;;-2.30;99.90;;;;;;4888569;28;140859;-81
2022/03/07 05:08:40;;;;;;;15.50;6.80;;;-2.30;99.90;;;;;;4975245;28;20571;-80
2022/03/07 05:11:06;;;;;;;16.50;7.35;;;-2.30;99.90;;;;;;4916567;28;163848;-80
2022/03/07 05:13:33;;;;;;;15.13;7.40;;;-2.30;99.90;;;;;;4986884;28;20062;-80
2022/03/07 05:15:59;;;;;;;19.48;7.72;;;-2.30;99.90;;;;;;4919434;28;52457;-80
2022/03/07 05:18:25;;;;;;;16.35;7.78;;;-2.30;99.90;;;;;;4976722;28;20054;-79
2022/03/07 05:20:52;;;;;;;14.68;6.93;;;-2.30;99.90;;;;;;4916811;28;70639;-80
2022/03/07 05:23:18;;;;;;;14.23;6.70;;;-2.30;99.90;;;;;;4973844;28;20392;-79
2022/03/07 05:25:44;;;;;;;16.80;7.88;;;-2.40;99.90;;;;;;4911369;28;107380;-80
2022/03/07 05:28:10;;;;;;;13.07;6.95;;;-2.30;99.90;;;;;;4972320;28;20059;-80
2022/03/07 05:30:36;;;;;;;14.43;7.65;;;-2.30;99.90;;;;;;4915742;28;274747;-79
2022/03/07 05:33:02;;;;;;;14.50;6.85;;;-2.30;99.90;;;;;;4964577;28;20092;-80
2022/03/07 05:35:29;;;;;;;15.18;7.30;;;-2.30;99.90;;;;;;4943447;28;20064;-80
2022/03/07 05:37:56;;;;;;;16.27;7.20;;;-2.30;99.90;;;;;;4980360;28;20428;-80
2022/03/07 05:40:22;;;;;;;18.73;7.57;;;-2.30;99.90;;;;;;4924770;28;171752;-79
2022/03/07 05:42:48;;;;;;;17.85;7.80;;;-2.30;99.90;;;;;;4975238;28;20055;-80
2022/03/07 05:45:15;;;;;;;16.63;8.02;;;-2.30;99.90;;;;;;4927116;28;283013;-79
2022/03/07 05:47:42;;;;;;;16.55;7.82;;;-2.30;99.90;;;;;;4967025;28;20062;-80
2022/03/07 05:50:09;;;;;;;16.60;8.13;;;-2.20;99.90;;;;;;4934449;28;144466;-80
2022/03/07 05:52:35;;;;;;;16.00;8.07;;;-2.20;99.90;;;;;;4978228;28;20062;-80
2022/03/07 05:55:04;;;;;;;18.13;9.07;;;-2.20;99.90;;;;;;4931376;28;174062;-80
2022/03/07 05:57:30;;;;;;;21.52;9.77;;;-2.10;99.90;;;;;;4968820;28;20054;-80
2022/03/07 05:59:56;;;;;;;18.63;8.93;;;-2.10;99.90;;;;;;4935937;28;20058;-80
2022/03/07 06:02:23;;;;;;;15.88;8.52;;;-2.10;99.90;;;;;;4964684;28;20054;-78
2022/03/07 06:04:49;;;;;;;17.10;9.45;;;-2.00;99.90;;;;;;4915645;28;263531;-80
2022/03/07 06:07:16;;;;;;;16.98;9.88;;;-2.00;99.90;;;;;;4963912;28;20047;-81
2022/03/07 06:09:42;;;;;;;20.95;9.93;;;-1.90;99.90;;;;;;4937807;28;61856;-81
2022/03/07 06:12:09;;;;;;;18.20;10.27;;;-1.90;99.90;;;;;;4983356;28;20093;-81
2022/03/07 06:14:35;;;;;;;33.60;11.30;;;-1.80;99.90;;;;;;4943380;28;267678;-82
2022/03/07 06:17:01;;;;;;;23.88;10.88;;;-1.70;99.90;;;;;;4990450;28;20061;-81
2022/03/07 06:19:27;;;;;;;19.77;10.85;;;-1.70;99.90;;;;;;4940884;28;274307;-80
2022/03/07 06:21:53;;;;;;;20.00;9.70;;;-1.60;99.90;;;;;;4982164;28;20070;-80
2022/03/07 06:24:19;;;;;;;17.17;8.75;;;-1.60;99.90;;;;;;4937863;28;272076;-81
2022/03/07 06:26:45;;;;;;;20.58;9.98;;;-1.50;99.90;;;;;;4996448;28;20070;-80
2022/03/07 06:29:11;;;;;;;18.52;8.55;;;-1.50;99.90;;;;;;4973295;28;269229;-80
2022/03/07 06:31:37;;;;;;;21.70;10.27;;;-1.40;99.90;;;;;;4959855;28;20049;-81
2022/03/07 06:34:04;;;;;;;23.17;10.93;;;-1.30;99.90;;;;;;4953432;28;274720;-81
2022/03/07 06:36:30;;;;;;;20.15;9.75;;;-1.30;99.90;;;;;;4964640;28;20051;-81
2022/03/07 06:38:56;;;;;;;21.17;10.67;;;-1.20;99.90;;;;;;4961737;28;275852;-83
2022/03/07 06:41:22;;;;;;;20.38;10.38;;;-1.10;99.90;;;;;;4940121;28;20050;-82
2022/03/07 06:43:48;;;;;;;21.05;10.65;;;-1.10;99.90;;;;;;4964761;28;262399;-79
2022/03/07 06:46:14;;;;;;;18.60;9.90;;;-1.00;99.90;;;;;;4930245;28;20035;-79
2022/03/07 06:48:40;;;;;;;24.38;10.30;;;-0.90;99.90;;;;;;4975845;28;20072;-79
2022/03/07 06:51:06;;;;;;;24.10;11.00;;;-0.90;99.90;;;;;;4913535;28;104480;-80
2022/03/07 06:53:34;;;;;;;20.70;10.38;;;-0.80;99.90;;;;;;4959200;28;20417;-80
2022/03/07 06:56:00;;;;;;;22.02;11.30;;;-0.80;99.90;;;;;;4913502;28;43509;-80
2022/03/07 06:58:26;;;;;;;18.95;11.15;;;-0.70;99.90;;;;;;4979856;28;20051;-80
2022/03/07 07:00:52;;;;;;;19.50;10.32;;;-0.70;99.90;;;;;;4909289;28;166614;-81
2022/03/07 07:03:19;;;;;;;18.88;9.27;;;-0.60;99.90;;;;;;4973093;28;20059;-80
2022/03/07 07:05:45;;;;;;;20.55;10.23;;;-0.60;99.90;;;;;;4924401;28;273642;-80
2022/03/07 07:08:11;;;;;;;20.77;11.80;;;-0.60;99.90;;;;;;4951856;28;20054;-81
2022/03/07 07:10:38;;;;;;;21.80;11.30;;;-0.50;99.90;;;;;;4926633;28;56549;-80
2022/03/07 07:13:04;;;;;;;18.88;10.27;;;-0.40;99.90;;;;;;4976633;28;20503;-80
2022/03/07 07:15:36;;;;;;;22.55;11.30;;;-0.40;99.90;;;;;;4940053;28;258979;-81
2022/03/07 07:18:02;;;;;;;21.25;12.00;;;-0.30;99.90;;;;;;4977666;28;20062;-81
2022/03/07 07:20:28;;;;;;;23.80;12.63;;;-0.30;99.90;;;;;;4926101;28;260306;-81
2022/03/07 07:22:54;;;;;;;22.75;12.13;;;-0.20;99.90;;;;;;5002163;28;20059;-81
2022/03/07 07:25:20;;;;;;;21.63;10.10;;;-0.20;99.90;;;;;;4937365;28;219947;-81
2022/03/07 07:27:46;;;;;;;17.30;9.68;;;-0.10;99.90;;;;;;4981009;28;20047;-81
2022/03/07 07:30:13;;;;;;;17.23;9.57;;;-0.10;99.90;;;;;;4941981;28;259812;-82
2022/03/07 07:32:40;;;;;;;17.35;8.93;;;-0.10;99.90;;;;;;4972535;28;20509;-81
2022/03/07 07:35:08;;;;;;;17.67;9.32;;;-0.10;99.90;;;;;;4930457;28;89882;-81
2022/03/07 07:37:34;;;;;;;20.38;9.40;;;-0.10;99.90;;;;;;4970227;28;20083;-80
2022/03/07 07:40:00;;;;;;;16.92;9.77;;;-0.10;99.90;;;;;;4932052;28;171676;-81
2022/03/07 07:42:27;;;;;;;20.80;9.48;;;-0.10;99.90;;;;;;4970385;28;20055;-80
2022/03/07 07:44:53;;;;;;;16.77;9.75;;;-0.10;99.90;;;;;;4936162;28;270640;-80
2022/03/07 07:47:19;;;;;;;20.20;9.35;;;-0.10;99.90;;;;;;4969128;28;20057;-81
2022/03/07 07:49:45;;;;;;;22.25;11.88;;;-0.10;99.90;;;;;;4932212;28;218989;-81
2022/03/07 07:52:11;;;;;;;23.33;12.05;;;0.00;99.90;;;;;;4974100;28;20066;-81
2022/03/07 07:54:37;;;;;;;23.85;13.85;;;0.00;99.90;;;;;;4927873;28;256383;-81
2022/03/07 07:57:05;;;;;;;22.08;14.23;;;0.10;99.90;;;;;;4975717;28;20355;-82
2022/03/07 07:59:32;;;;;;;27.80;14.65;;;0.20;99.90;;;;;;4942685;28;247150;-82
2022/03/07 08:01:58;;;;;;;27.30;15.43;;;0.20;99.90;;;;;;4995522;28;20050;-82
2022/03/07 08:04:24;;;;;;;30.25;17.42;;;0.30;99.90;;;;;;4937550;28;145031;-82
2022/03/07 08:06:53;;;;;;;31.75;15.73;;;0.40;99.90;;;;;;4978063;28;20054;-81
2022/03/07 08:09:19;;;;;;;30.33;16.63;;;0.40;99.90;;;;;;4950271;28;168364;-82
2022/03/07 08:11:45;;;;;;;28.80;17.10;;;0.50;99.90;;;;;;4980769;28;20062;-81
2022/03/07 08:14:12;;;;;;;31.40;18.13;;;0.50;99.90;;;;;;4972070;28;117976;-82
2022/03/07 08:16:38;;;;;;;26.83;18.02;;;0.60;99.90;;;;;;4940964;28;20061;-80
2022/03/07 08:19:04;;;;;;;32.45;18.70;;;0.70;99.90;;;;;;4964642;28;263762;-81
2022/03/07 08:21:30;;;;;;;31.95;18.55;;;0.70;99.90;;;;;;4936006;28;20110;-81
2022/03/07 08:23:56;;;;;;;30.88;17.67;;;0.80;99.90;;;;;;4941407;28;250153;-81
2022/03/07 08:26:23;;;;;;;32.50;19.23;;;0.90;99.90;;;;;;4939175;28;20038;-81
2022/03/07 08:28:50;;;;;;;30.63;18.90;;;1.00;99.90;;;;;;4963738;28;253879;-82
2022/03/07 08:31:16;;;;;;;32.50;18.50;;;1.20;99.90;;;;;;4963185;28;20042;-82
2022/03/07 08:33:42;;;;;;;30.77;19.52;;;1.40;99.90;;;;;;4981957;28;20058;-80
2022/03/07 08:36:08;;;;;;;32.53;18.30;;;1.50;99.90;;;;;;4932976;28;263985;-80
2022/03/07 08:38:34;;;;;;;31.73;19.92;;;1.70;99.90;;;;;;4974010;28;20066;-80
2022/03/07 08:41:01;;;;;;;36.92;20.08;;;1.80;99.90;;;;;;4903254;28;185178;-80
2022/03/07 08:43:27;;;;;;;31.67;18.73;;;1.90;99.90;;;;;;4970266;28;20054;-80
2022/03/07 08:45:54;;;;;;;31.58;17.98;;;2.00;99.90;;;;;;4928268;28;190090;-79
2022/03/07 08:48:20;;;;;;;35.70;20.13;;;2.00;99.90;;;;;;4972959;28;20051;-82
2022/03/07 08:50:48;;;;;;;25.85;16.40;;;2.20;99.90;;;;;;4905541;28;161922;-79
2022/03/07 08:53:18;;;;;;;26.25;15.48;;;2.30;99.90;;;;;;4966536;28;20074;-80
2022/03/07 08:55:44;;;;;;;31.88;17.65;;;2.40;99.90;;;;;;4926005;28;259873;-81
2022/03/07 08:58:11;;;;;;;31.63;17.65;;;2.50;99.90;;;;;;4978688;28;20061;-81
2022/03/07 09:00:37;;;;;;;27.42;15.45;;;2.50;99.90;;;;;;4907723;28;219855;-80
2022/03/07 09:03:06;;;;;;;27.48;15.02;;;2.70;99.90;;;;;;4972763;28;20134;-81
2022/03/07 09:05:32;;;;;;;24.90;13.85;;;2.70;99.90;;;;;;4911329;28;158829;-81
2022/03/07 09:07:58;;;;;;;21.08;11.35;;;2.80;99.90;;;;;;4978588;28;20051;-82
2022/03/07 09:10:24;;;;;;;25.65;12.90;;;2.80;99.90;;;;;;4933673;28;202404;-81
2022/03/07 09:12:54;;;;;;;21.30;11.05;;;2.90;99.90;;;;;;4967991;28;20050;-81
2022/03/07 09:15:20;;;;;;;22.92;10.73;;;3.00;99.90;;;;;;4936983;28;119742;-81
2022/03/07 09:17:46;;;;;;;18.08;7.10;;;3.10;99.90;;;;;;4984585;28;20068;-82
2022/03/07 09:20:13;;;;;;;17.52;8.93;;;3.10;99.90;;;;;;4927372;28;97700;-82
2022/03/07 09:22:39;;;;;;;16.20;6.47;;;3.20;99.90;;;;;;4980807;28;20051;-82
2022/03/07 09:25:06;;;;;;;16.85;8.02;;;3.30;99.90;;;;;;4954336;28;208519;-83
2022/03/07 09:27:33;;;;;;;18.33;7.90;;;3.40;99.90;;;;;;4969242;28;20392;-82
2022/03/07 09:29:59;;;;;;;14.52;6.90;;;3.60;99.90;;;;;;4935181;28;237835;-82
2022/03/07 09:32:25;;;;;;;13.63;6.95;;;3.60;99.90;;;;;;4996152;28;20546;-83
2022/03/07 09:34:51;;;;;;;12.57;6.20;;;3.70;99.90;;;;;;4935002;28;231137;-84
2022/03/07 09:37:17;;;;;;;14.70;7.03;;;3.90;99.90;;;;;;4996725;28;20034;-85
2022/03/07 09:39:44;;;;;;;15.20;7.20;;;3.90;99.90;;;;;;4950018;28;253498;-85
2022/03/07 09:42:10;;;;;;;14.48;7.00;;;4.00;99.90;;;;;;4991125;28;20051;-84
2022/03/07 09:44:36;;;;;;;14.68;6.38;;;3.90;99.90;;;;;;4942529;28;80930;-83
2022/03/07 09:47:04;;;;;;;12.93;5.13;;;4.00;99.90;;;;;;4978077;28;20050;-85
2022/03/07 09:49:31;;;;;;;16.80;4.90;;;4.10;99.90;;;;;;4939320;28;260837;-84
2022/03/07 09:51:58;;;;;;;15.30;5.18;;;4.20;99.90;;;;;;4981588;28;20046;-84
2022/03/07 09:54:24;;;;;;;10.23;4.10;;;4.30;99.90;;;;;;4940649;28;160660;-82
2022/03/07 09:56:52;;;;;;;12.35;4.03;;;4.30;99.90;;;;;;4964273;28;20046;-83
2022/03/07 09:59:20;;;;;;;13.52;4.38;;;4.30;99.90;;;;;;4939366;28;258770;-83
2022/03/07 10:01:59;;;;;;;12.60;4.25;;;4.40;99.90;;;;;;4971013;28;20073;-83
2022/03/07 10:04:25;;;;;;;12.32;3.72;;;4.50;99.90;;;;;;4931938;28;147296;-83
2022/03/07 10:06:52;;;;;;;13.35;4.35;;;4.60;99.90;;;;;;4980102;28;20057;-82
2022/03/07 10:09:25;;;;;;;15.05;4.78;;;4.60;99.90;;;;;;4951230;28;48132;-82
2022/03/07 10:12:00;;;;;;;16.17;5.30;;;4.70;99.90;;;;;;4962426;28;20550;-82
2022/03/07 10:14:42;;;;;;;12.73;4.57;;;4.90;99.90;;;;;;4934648;28;267218;-83
2022/03/07 10:17:25;;;;;;;14.18;4.60;;;5.10;99.90;;;;;;4953087;28;20059;-83
2022/03/07 10:19:53;;;;;;;12.98;4.90;;;5.30;99.90;;;;;;4938232;28;253763;-83
2022/03/07 10:22:22;;;;;;;15.93;4.68;;;5.90;99.90;;;;;;4971468;28;20055;-83
2022/03/07 10:25:05;;;;;;;12.60;4.10;;;6.50;99.90;;;;;;4933927;28;35865;-83
2022/03/07 10:27:37;;;;;;;11.70;4.10;;;6.50;99.90;;;;;;4966215;28;20047;-81
2022/03/07 10:30:09;;;;;;;12.63;4.45;;;6.40;99.90;;;;;;4929858;28;20050;-82
2022/03/07 10:32:35;;;;;;;12.02;3.83;;;7.20;99.90;;;;;;4964827;28;20054;-83
2022/03/07 10:35:01;;;;;;;9.82;3.40;;;7.50;99.90;;;;;;4940462;28;222363;-82
2022/03/07 10:37:36;;;;;;;12.57;3.47;;;7.20;99.90;;;;;;4984233;28;20051;-81
2022/03/07 10:40:07;;;;;;;11.23;3.65;;;7.10;99.90;;;;;;4926747;28;267631;-82
2022/03/07 10:42:43;;;;;;;13.38;3.72;;;7.00;99.90;;;;;;4965234;28;20049;-82
2022/03/07 10:45:09;;;;;;;14.07;3.40;;;8.00;99.90;;;;;;4933005;28;56674;-82
2022/03/07 10:47:36;;;;;;;9.90;3.08;;;8.80;99.90;;;;;;4949498;28;20065;-81
2022/03/07 10:50:03;;;;;;;12.15;3.58;;;9.00;99.90;;;;;;4937858;28;278393;-82
2022/03/07 10:52:38;;;;;;;11.18;2.97;;;9.70;99.90;;;;;;4970819;28;20254;-82
2022/03/07 10:55:11;;;;;;;10.27;3.00;;;9.20;99.90;;;;;;4929302;28;204772;-82
2022/03/07 10:57:41;;;;;;;13.43;3.50;;;8.80;99.90;;;;;;4971377;28;20697;-83
2022/03/07 11:00:12;;;;;;;12.00;2.78;;;8.80;99.90;;;;;;4940834;28;272385;-83
2022/03/07 11:02:40;;;;;;;10.73;2.83;;;8.80;99.90;;;;;;4978073;28;20065;-84
2022/03/07 11:05:07;;;;;;;9.68;2.75;;;9.10;99.90;;;;;;4907983;28;165525;-81
2022/03/07 11:07:38;;;;;;;9.95;2.60;;;10.20;99.90;;;;;;4969650;28;20047;-82
2022/03/07 11:10:07;;;;;;;11.00;2.50;;;10.10;99.90;;;;;;4926451;28;211702;-82
2022/03/07 11:12:34;;;;;;;9.75;2.30;;;9.60;99.90;;;;;;4987187;28;20081;-83
2022/03/07 11:15:08;;;;;;;8.10;2.22;;;10.80;99.90;;;;;;4932502;28;206648;-82
2022/03/07 11:17:42;;;;;;;8.90;2.25;;;12.00;99.90;;;;;;4978214;28;20057;-82
2022/03/07 11:20:12;;;;;;;9.13;2.22;;;12.80;99.90;;;;;;4939647;28;154885;-83
2022/03/07 11:22:38;;;;;;;7.72;2.13;;;13.60;99.90;;;;;;4980605;28;20065;-82
2022/03/07 11:25:06;;;;;;;9.18;2.33;;;14.30;99.90;;;;;;4945072;28;252120;-83
2022/03/07 11:27:35;;;;;;;9.43;2.25;;;14.60;96.60;;;;;;4977394;28;20070;-82
2022/03/07 11:30:21;;;;;;;9.05;2.10;;;14.80;93.80;;;;;;4937917;28;230438;-83
2022/03/07 11:32:51;;;;;;;11.23;2.35;;;15.30;93.50;;;;;;4993261;28;20042;-83
2022/03/07 11:35:19;;;;;;;9.02;2.38;;;15.90;90.50;;;;;;4915703;28;48042;-82
2022/03/07 11:37:45;;;;;;;8.52;2.10;;;15.90;81.60;;;;;;4959879;28;20050;-81
2022/03/07 11:40:23;;;;;;;8.55;1.75;;;16.10;86.10;;;;;;4942363;28;134391;-82
2022/03/07 11:42:50;;;;;;;7.75;1.90;;;16.40;72.50;;;;;;4983157;28;20059;-83
2022/03/07 11:45:19;;;;;;;8.10;2.00;;;16.50;69.90;;;;;;4930079;28;192966;-83
2022/03/07 11:47:47;;;;;;;7.57;1.90;;;16.80;73.50;;;;;;4983243;28;20575;-83
2022/03/07 11:50:20;;;;;;;8.23;2.00;;;17.20;67.10;;;;;;4936899;28;129184;-83
2022/03/07 11:52:46;;;;;;;9.77;1.90;;;17.00;64.50;;;;;;4986366;28;20051;-83
2022/03/07 11:55:16;;;;;;;5.82;1.40;;;17.70;70.60;;;;;;4946129;28;204912;-83
2022/03/07 11:57:48;;;;;;;6.97;1.60;;;18.00;59.00;;;;;;4981150;28;20043;-82
2022/03/07 12:00:16;;;;;;;6.25;1.40;;;18.10;59.50;;;;;;4924432;28;78435;-83
2022/03/07 12:02:45;;;;;;;7.90;1.80;;;18.00;58.70;;;;;;4980787;28;20504;-83
2022/03/07 12:05:31;;;;;;;6.60;1.65;;;18.00;57.80;;;;;;4905667;28;220354;-83
2022/03/07 12:08:26;;;;;;;6.72;1.70;;;17.00;52.60;;;;;;4967751;28;20074;-83
2022/03/07 12:10:55;;;;;;;5.32;1.42;;;16.80;51.80;;;;;;4872926;29;20045;-83
2022/03/07 12:13:21;;;;;;;7.30;1.55;;;15.80;54.00;;;;;;4941419;29;20056;-83
2022/03/07 12:15:50;;;;;;;6.78;1.40;;;14.80;54.00;;;;;;4904922;28;112949;-82
2022/03/07 12:18:17;;;;;;;7.10;1.40;;;15.30;54.90;;;;;;4942534;29;20066;-83
2022/03/07 12:20:47;;;;;;;6.05;1.35;;;16.00;53.80;;;;;;4878665;28;59591;-83
2022/03/07 12:23:16;;;;;;;4.80;1.20;;;16.80;51.70;;;;;;4918198;29;20051;-83
2022/03/07 12:25:43;;;;;;;5.80;1.50;;;17.40;53.40;;;;;;4887078;28;149150;-83
2022/03/07 12:28:11;;;;;;;7.78;1.48;;;17.60;51.60;;;;;;4921111;29;20051;-82
2022/03/07 12:30:37;;;;;;;6.28;1.52;;;17.50;50.90;;;;;;4874894;28;179071;-83
2022/03/07 12:33:08;;;;;;;6.13;1.40;;;18.00;49.60;;;;;;4933734;29;20330;-82
2022/03/07 12:35:34;;;;;;;;;;;18.20;49.30;;;;;;4895596;28;233775;-83